createdAt,value
2023-05-07T00:01:22.515Z,101641.47
2023-05-07T00:03:49.705Z,101636.13
2023-05-07T00:06:16.804Z,101638.56
2023-05-07T00:08:43.874Z,101639.06
2023-05-07T00:11:10.882Z,101629.44
2023-05-07T00:13:37.694Z,101619.63
2023-05-07T00:16:05.512Z,101625.69
2023-05-07T00:18:32.720Z,101630.81
2023-05-07T00:21:01.856Z,101620.56
2023-05-07T00:23:28.772Z,101610.91
2023-05-07T00:25:57.371Z,101627.06
2023-05-07T00:28:26.649Z,101616.03
2023-05-07T00:30:54.096Z,101622.59
2023-05-07T00:33:21.962Z,101610.00
2023-05-07T00:35:49.428Z,101617.41
2023-05-07T00:38:16.711Z,101607.72
2023-05-07T00:40:43.697Z,101619.31
2023-05-07T00:43:10.622Z,101617.09
2023-05-07T00:45:37.467Z,101609.00
2023-05-07T00:48:06.836Z,101598.66
2023-05-07T00:50:34.257Z,101597.63
2023-05-07T00:53:01.676Z,101600.06
2023-05-07T00:55:28.694Z,101601.06
2023-05-07T00:57:55.839Z,101595.38
2023-05-07T01:00:22.668Z,101611.75
2023-05-07T01:02:49.738Z,101595.91
2023-05-07T01:05:23.878Z,101607.47
2023-05-07T01:07:53.961Z,101578.16
2023-05-07T01:10:20.860Z,101600.53
2023-05-07T01:12:49.706Z,101593.50
2023-05-07T01:15:17.105Z,101598.28
2023-05-07T01:17:45.679Z,101588.97
2023-05-07T01:20:13.132Z,101595.00
2023-05-07T01:22:40.950Z,101588.13
2023-05-07T01:25:09.243Z,101584.81
2023-05-07T01:27:38.097Z,101584.28
2023-05-07T01:30:06.376Z,101580.19
2023-05-07T01:32:44.254Z,101593.44
2023-05-07T01:35:15.021Z,101576.19
2023-05-07T01:37:42.679Z,101589.13
2023-05-07T01:40:10.761Z,101589.47
2023-05-07T01:42:38.261Z,101587.56
2023-05-07T01:45:05.557Z,101581.22
2023-05-07T01:47:33.346Z,101580.53
2023-05-07T01:50:00.456Z,101584.97
2023-05-07T01:52:28.948Z,101571.56
2023-05-07T01:54:55.852Z,101550.38
2023-05-07T01:57:22.758Z,101574.97
2023-05-07T01:59:51.962Z,101569.09
2023-05-07T02:02:18.834Z,101574.97
2023-05-07T02:04:45.718Z,101567.69
2023-05-07T02:07:12.371Z,101563.59
2023-05-07T02:09:39.319Z,101567.22
2023-05-07T02:12:06.605Z,101580.63
2023-05-07T02:14:38.097Z,101574.97
2023-05-07T02:17:10.834Z,101564.63
2023-05-07T02:19:42.448Z,101572.56
2023-05-07T02:22:11.064Z,101558.03
2023-05-07T02:24:37.990Z,101564.94
2023-05-07T02:27:07.232Z,101574.78
2023-05-07T02:29:34.173Z,101528.94
2023-05-07T02:32:01.070Z,101541.13
2023-05-07T02:34:28.251Z,101559.63
2023-05-07T02:36:57.761Z,101565.09
2023-05-07T02:39:24.545Z,101576.09
2023-05-07T02:41:51.117Z,101547.66
2023-05-07T02:44:17.964Z,101575.72
2023-05-07T02:46:44.911Z,101573.13
2023-05-07T02:49:14.321Z,101569.03
2023-05-07T02:51:41.174Z,101553.31
2023-05-07T02:54:08.160Z,101568.88
2023-05-07T02:56:35.064Z,101574.22
2023-05-07T02:59:01.878Z,101557.50
2023-05-07T03:01:28.799Z,101559.41
2023-05-07T03:03:55.579Z,101578.53
2023-05-07T03:06:22.712Z,101535.09
2023-05-07T03:08:51.877Z,101565.28
2023-05-07T03:11:18.943Z,101562.84
2023-05-07T03:13:50.284Z,101567.31
2023-05-07T03:16:17.444Z,101577.84
2023-05-07T03:18:44.567Z,101574.38
2023-05-07T03:21:14.005Z,101571.78
2023-05-07T03:23:45.555Z,101571.78
2023-05-07T03:26:14.555Z,101552.81
2023-05-07T03:28:41.477Z,101547.66
2023-05-07T03:31:10.729Z,101567.47
2023-05-07T03:33:51.398Z,101552.50
2023-05-07T03:36:18.345Z,101571.09
2023-05-07T03:38:45.149Z,101551.81
2023-05-07T03:41:12.119Z,101551.81
2023-05-07T03:43:38.999Z,101568.81
2023-05-07T03:46:05.968Z,101540.22
2023-05-07T03:48:32.842Z,101553.16
2023-05-07T03:51:00.426Z,101559.19
2023-05-07T03:53:27.471Z,101450.72
2023-05-07T03:55:54.289Z,101555.19
2023-05-07T03:58:21.306Z,101556.38
2023-05-07T04:00:51.007Z,101560.69
2023-05-07T04:03:18.515Z,101572.56
2023-05-07T04:05:48.157Z,101580.28
2023-05-07T04:08:17.392Z,101480.91
2023-05-07T04:10:44.405Z,101577.31
2023-05-07T04:13:11.512Z,101578.50
2023-05-07T04:15:38.371Z,101570.22
2023-05-07T04:18:08.570Z,101573.13
2023-05-07T04:20:37.965Z,101585.34
2023-05-07T04:23:05.076Z,101580.16
2023-05-07T04:25:32.653Z,101574.97
2023-05-07T04:27:59.915Z,101580.78
2023-05-07T04:30:27.506Z,101576.19
2023-05-07T04:32:57.436Z,101591.69
2023-05-07T04:35:24.504Z,101587.06
2023-05-07T04:37:53.554Z,101570.53
2023-05-07T04:40:21.158Z,101588.78
2023-05-07T04:42:51.272Z,101589.66
2023-05-07T04:45:18.960Z,101592.25
2023-05-07T04:47:48.268Z,101590.50
2023-05-07T04:50:18.945Z,101603.63
2023-05-07T04:52:46.470Z,101587.06
2023-05-07T04:55:16.046Z,101567.78
2023-05-07T04:57:49.219Z,101608.16
2023-05-07T05:00:36.201Z,101613.31
2023-05-07T05:03:03.177Z,101561.56
2023-05-07T05:05:32.337Z,101614.03
2023-05-07T05:08:01.294Z,101604.59
2023-05-07T05:10:28.109Z,101588.94
2023-05-07T05:12:55.656Z,101579.75
2023-05-07T05:15:34.163Z,101623.03
2023-05-07T05:18:03.794Z,101602.00
2023-05-07T05:20:33.440Z,101618.22
2023-05-07T05:23:00.484Z,101605.47
2023-05-07T05:25:27.213Z,101611.34
2023-05-07T05:27:54.094Z,101623.41
2023-05-07T05:30:22.494Z,101623.25
2023-05-07T05:32:50.048Z,101626.88
2023-05-07T05:35:16.923Z,101621.13
2023-05-07T05:37:46.809Z,101622.53
2023-05-07T05:40:18.384Z,101626.16
2023-05-07T05:42:45.336Z,101639.41
2023-05-07T05:45:12.323Z,101641.84
2023-05-07T05:47:40.144Z,101640.25
2023-05-07T05:50:26.093Z,101644.59
2023-05-07T05:52:55.408Z,101640.97
2023-05-07T05:55:23.279Z,101626.00
2023-05-07T05:57:52.525Z,101638.94
2023-05-07T06:00:19.903Z,101633.38
2023-05-07T06:02:47.030Z,101647.50
2023-05-07T06:05:13.966Z,101621.38
2023-05-07T06:07:40.733Z,101622.44
2023-05-07T06:10:08.158Z,101614.88
2023-05-07T06:12:35.207Z,101622.00
2023-05-07T06:15:02.690Z,101638.38
2023-05-07T06:17:29.413Z,101643.94
2023-05-07T06:19:56.210Z,101618.13
2023-05-07T06:22:23.086Z,101630.88
2023-05-07T06:24:49.727Z,101640.75
2023-05-07T06:27:16.486Z,101650.19
2023-05-07T06:30:14.164Z,101649.56
2023-05-07T06:32:38.041Z,101640.16
2023-05-07T06:35:05.387Z,101610.66
2023-05-07T06:37:32.164Z,101630.47
2023-05-07T06:40:01.090Z,101648.28
2023-05-07T06:42:30.447Z,101642.97
2023-05-07T06:44:57.179Z,101636.06
2023-05-07T06:47:24.409Z,101640.41
2023-05-07T06:49:53.333Z,101646.28
2023-05-07T06:52:20.256Z,101659.53
2023-05-07T06:54:49.475Z,101659.53
2023-05-07T06:57:16.091Z,101650.78
2023-05-07T06:59:42.847Z,101653.03
2023-05-07T07:02:09.790Z,101638.38
2023-05-07T07:04:39.807Z,101655.97
2023-05-07T07:07:06.866Z,101648.94
2023-05-07T07:09:35.947Z,101641.53
2023-05-07T07:12:02.785Z,101654.31
2023-05-07T07:14:29.447Z,101654.84
2023-05-07T07:16:56.404Z,101651.06
2023-05-07T07:19:23.148Z,101641.06
2023-05-07T07:21:51.110Z,101643.31
2023-05-07T07:24:22.077Z,101650.25
2023-05-07T07:26:48.972Z,101645.91
2023-05-07T07:29:15.692Z,101657.63
2023-05-07T07:31:42.277Z,101655.34
2023-05-07T07:34:08.999Z,101640.53
2023-05-07T07:36:45.661Z,101665.19
2023-05-07T07:39:16.072Z,101660.19
2023-05-07T07:41:45.713Z,101674.31
2023-05-07T07:44:16.022Z,101670.13
2023-05-07T07:46:43.520Z,101678.34
2023-05-07T07:49:10.382Z,101684.91
2023-05-07T07:51:38.480Z,101670.84
2023-05-07T07:54:05.434Z,101680.66
2023-05-07T07:56:34.675Z,101675.84
2023-05-07T07:59:02.027Z,101678.50
2023-05-07T08:01:31.092Z,101680.09
2023-05-07T08:04:00.014Z,101679.44
2023-05-07T08:06:29.477Z,101677.41
2023-05-07T08:08:56.321Z,101681.34
2023-05-07T08:11:23.053Z,101636.06
2023-05-07T08:13:50.030Z,101682.97
2023-05-07T08:16:16.699Z,101674.78
2023-05-07T08:18:46.035Z,101664.16
2023-05-07T08:21:12.705Z,101676.47
2023-05-07T08:23:41.787Z,101681.88
2023-05-07T08:26:10.054Z,101684.63
2023-05-07T08:28:36.762Z,101679.16
2023-05-07T08:31:03.733Z,101688.88
2023-05-07T08:33:32.559Z,101680.97
2023-05-07T08:35:59.568Z,101682.28
2023-05-07T08:38:28.618Z,101690.19
2023-05-07T08:40:57.779Z,101679.69
2023-05-07T08:43:28.325Z,101664.59
2023-05-07T08:46:02.645Z,101674.66
2023-05-07T08:48:31.200Z,101684.06
2023-05-07T08:50:59.850Z,101675.53
2023-05-07T08:53:26.792Z,101678.28
2023-05-07T08:55:54.543Z,101689.44
2023-05-07T08:58:21.332Z,101692.06
2023-05-07T09:00:48.565Z,101688.56
2023-05-07T09:03:15.496Z,101697.34
2023-05-07T09:05:42.399Z,101695.44
2023-05-07T09:08:09.334Z,101696.94
2023-05-07T09:10:36.028Z,101692.38
2023-05-07T09:13:04.852Z,101682.94
2023-05-07T09:15:31.812Z,101691.84
2023-05-07T09:18:04.967Z,101692.03
2023-05-07T09:20:33.009Z,101694.25
2023-05-07T09:22:59.803Z,101700.69
2023-05-07T09:25:32.559Z,101693.56
2023-05-07T09:28:00.083Z,101699.41
2023-05-07T09:30:31.344Z,101698.16
2023-05-07T09:33:00.809Z,101691.94
2023-05-07T09:35:28.727Z,101706.06
2023-05-07T09:37:58.065Z,101701.94
2023-05-07T09:40:30.629Z,101697.13
2023-05-07T09:42:57.495Z,101662.88
2023-05-07T09:45:26.515Z,101701.31
2023-05-07T09:47:58.881Z,101689.06
2023-05-07T09:50:33.717Z,101699.56
2023-05-07T09:53:01.021Z,101702.09
2023-05-07T09:55:28.704Z,101697.13
2023-05-07T10:00:38.779Z,101697.44
2023-05-07T10:03:16.813Z,101706.00
2023-05-07T10:05:45.685Z,101705.78
2023-05-07T10:08:17.891Z,101688.94
2023-05-07T10:10:55.939Z,101705.19
2023-05-07T10:13:23.267Z,101647.72
2023-05-07T10:15:54.374Z,101664.56
2023-05-07T10:18:30.639Z,101701.69
2023-05-07T10:21:03.833Z,101697.13
2023-05-07T10:23:42.789Z,101704.84
2023-05-07T10:26:10.555Z,101696.28
2023-05-07T10:28:47.908Z,101709.41
2023-05-07T10:31:51.362Z,101706.47
2023-05-07T10:34:33.516Z,101698.00
2023-05-07T10:37:01.038Z,101709.75
2023-05-07T10:39:28.572Z,101722.91
2023-05-07T10:41:55.346Z,101712.59
2023-05-07T10:44:34.354Z,101711.91
2023-05-07T10:47:10.376Z,101711.38
2023-05-07T10:49:43.937Z,101716.91
2023-05-07T10:52:27.888Z,101719.84
2023-05-07T10:55:26.159Z,101714.41
2023-05-07T10:57:52.976Z,101708.00
2023-05-07T11:00:38.944Z,101708.81
2023-05-07T11:03:08.112Z,101700.97
2023-05-07T11:05:40.242Z,101704.19
2023-05-07T11:08:07.393Z,101700.50
2023-05-07T11:10:54.458Z,101703.34
2023-05-07T11:13:44.165Z,101707.84
2023-05-07T11:16:25.963Z,101700.97
2023-05-07T11:18:57.409Z,101705.84
2023-05-07T11:21:36.125Z,101709.53
2023-05-07T11:24:06.690Z,101698.78
2023-05-07T11:26:48.717Z,101705.31
2023-05-07T11:29:23.866Z,101712.13
2023-05-07T11:32:00.982Z,101711.78
2023-05-07T11:34:28.711Z,101713.59
2023-05-07T11:36:56.827Z,101715.97
2023-05-07T11:39:28.492Z,101702.09
2023-05-07T11:41:55.332Z,101715.69
2023-05-07T11:44:21.948Z,101709.94
2023-05-07T11:46:49.680Z,101724.09
2023-05-07T11:49:16.866Z,101716.44
2023-05-07T11:51:44.257Z,101709.16
2023-05-07T11:54:12.474Z,101715.69
2023-05-07T11:56:40.060Z,101712.34
2023-05-07T11:59:07.449Z,101704.28
2023-05-07T12:01:37.233Z,101703.91
2023-05-07T12:04:06.439Z,101711.03
2023-05-07T12:06:40.177Z,101700.78
2023-05-07T12:09:12.597Z,101712.38
2023-05-07T12:11:40.934Z,101724.44
2023-05-07T12:14:09.486Z,101726.38
2023-05-07T12:16:38.300Z,101723.59
2023-05-07T12:19:10.615Z,101720.19
2023-05-07T12:21:37.395Z,101721.03
2023-05-07T12:24:04.459Z,101712.06
2023-05-07T12:26:31.311Z,101728.56
2023-05-07T12:29:04.644Z,101713.59
2023-05-07T12:31:34.822Z,101720.63
2023-05-07T12:34:07.203Z,101723.03
2023-05-07T12:36:42.561Z,101723.69
2023-05-07T12:39:09.870Z,101730.97
2023-05-07T12:41:57.648Z,101728.41
2023-05-07T12:44:41.381Z,101718.31
2023-05-07T12:47:08.392Z,101724.78
2023-05-07T12:49:38.851Z,101718.75
2023-05-07T12:52:06.744Z,101736.97
2023-05-07T12:54:34.997Z,101743.59
2023-05-07T12:57:07.592Z,101745.94
2023-05-07T12:59:44.954Z,101746.84
2023-05-07T13:02:14.088Z,101720.28
2023-05-07T13:04:40.830Z,101744.44
2023-05-07T13:07:07.532Z,101744.25
2023-05-07T13:09:34.491Z,101751.09
2023-05-07T13:12:04.277Z,101749.59
2023-05-07T13:14:33.407Z,101747.66
2023-05-07T13:17:00.077Z,101755.16
2023-05-07T13:19:28.046Z,101763.28
2023-05-07T13:21:58.401Z,101760.28
2023-05-07T13:24:25.284Z,101756.22
2023-05-07T13:26:51.892Z,101749.75
2023-05-07T13:29:18.613Z,101756.16
2023-05-07T13:31:45.477Z,101762.16
2023-05-07T13:34:12.600Z,101755.06
2023-05-07T13:36:43.027Z,101758.22
2023-05-07T13:39:10.174Z,101756.50
2023-05-07T13:41:36.833Z,101753.72
2023-05-07T13:44:04.789Z,101755.19
2023-05-07T13:46:31.868Z,101759.44
2023-05-07T13:48:58.655Z,101759.69
2023-05-07T13:51:25.439Z,101757.63
2023-05-07T13:53:53.586Z,101772.03
2023-05-07T13:56:21.431Z,101778.84
2023-05-07T13:58:58.977Z,101778.44
2023-05-07T14:01:31.431Z,101795.81
2023-05-07T14:04:04.077Z,101796.81
2023-05-07T14:06:30.945Z,101788.28
2023-05-07T14:08:59.205Z,101792.38
2023-05-07T14:11:25.977Z,101797.38
2023-05-07T14:13:54.818Z,101785.31
2023-05-07T14:16:21.648Z,101782.47
2023-05-07T14:18:48.786Z,101778.56
2023-05-07T14:21:19.173Z,101788.31
2023-05-07T14:23:45.831Z,101770.28
2023-05-07T14:26:12.695Z,101799.03
2023-05-07T14:28:40.754Z,101804.56
2023-05-07T14:31:12.358Z,101820.38
2023-05-07T14:33:41.763Z,101832.13
2023-05-07T14:36:08.752Z,101821.56
2023-05-07T14:38:35.705Z,101835.66
2023-05-07T14:41:02.649Z,101836.88
2023-05-07T14:43:29.749Z,101841.03
2023-05-07T14:46:03.510Z,101840.84
2023-05-07T14:48:30.279Z,101843.31
2023-05-07T14:51:35.838Z,101840.66
2023-05-07T14:54:03.028Z,101843.66
2023-05-07T14:56:30.142Z,101846.25
2023-05-07T14:58:59.257Z,101851.94
2023-05-07T15:01:29.471Z,101842.84
2023-05-07T15:03:56.497Z,101837.16
2023-05-07T15:06:27.450Z,101842.31
2023-05-07T15:08:54.228Z,101821.00
2023-05-07T15:11:21.023Z,101829.97
2023-05-07T15:13:49.833Z,101827.53
2023-05-07T15:16:17.222Z,101832.00
2023-05-07T15:18:46.810Z,101831.13
2023-05-07T15:21:14.117Z,101836.81
2023-05-07T15:23:42.774Z,101828.22
2023-05-07T15:26:09.860Z,101821.63
2023-05-07T15:28:40.419Z,101831.63
2023-05-07T15:31:08.048Z,101833.47
2023-05-07T15:33:38.091Z,101826.91
2023-05-07T15:36:10.547Z,101821.69
2023-05-07T15:38:37.418Z,101830.13
2023-05-07T15:41:04.652Z,101834.41
2023-05-07T15:43:31.458Z,101836.09
2023-05-07T15:46:01.193Z,101833.50
2023-05-07T15:48:28.466Z,101830.50
2023-05-07T15:50:57.484Z,101832.84
2023-05-07T15:53:25.900Z,101827.94
2023-05-07T15:55:52.556Z,101831.22
2023-05-07T15:58:21.274Z,101823.13
2023-05-07T16:00:48.124Z,101836.22
2023-05-07T16:03:15.108Z,101828.72
2023-05-07T16:05:45.153Z,101825.47
2023-05-07T16:08:11.894Z,101818.81
2023-05-07T16:10:41.267Z,101821.38
2023-05-07T16:13:10.552Z,101830.25
2023-05-07T16:15:39.351Z,101823.84
2023-05-07T16:18:06.114Z,101822.81
2023-05-07T16:20:37.543Z,101821.25
2023-05-07T16:23:04.464Z,101827.34
2023-05-07T16:25:31.840Z,101825.78
2023-05-07T16:27:58.449Z,101825.09
2023-05-07T16:30:25.479Z,101834.34
2023-05-07T16:32:54.689Z,101829.72
2023-05-07T16:35:21.650Z,101838.91
2023-05-07T16:37:48.327Z,101833.38
2023-05-07T16:40:15.228Z,101847.91
2023-05-07T16:42:44.897Z,101839.47
2023-05-07T16:45:12.035Z,101855.16
2023-05-07T16:47:38.880Z,101855.03
2023-05-07T16:50:06.425Z,101854.84
2023-05-07T16:52:33.235Z,101871.56
2023-05-07T16:55:02.198Z,101873.34
2023-05-07T16:57:34.359Z,101867.66
2023-05-07T17:00:01.440Z,101879.03
2023-05-07T17:02:30.334Z,101881.66
2023-05-07T17:04:57.015Z,101867.72
2023-05-07T17:07:26.842Z,101878.06
2023-05-07T17:09:56.416Z,101875.81
2023-05-07T17:12:23.102Z,101882.00
2023-05-07T17:14:49.877Z,101886.50
2023-05-07T17:17:16.604Z,101869.41
2023-05-07T17:19:44.495Z,101874.09
2023-05-07T17:22:11.442Z,101873.94
2023-05-07T17:24:59.068Z,101873.94
2023-05-07T17:27:25.854Z,101881.56
2023-05-07T17:29:55.214Z,101882.59
2023-05-07T17:32:24.596Z,101878.44
2023-05-07T17:35:03.140Z,101872.25
2023-05-07T17:37:30.118Z,101875.00
2023-05-07T17:39:57.426Z,101887.06
2023-05-07T17:42:34.930Z,101882.94
2023-05-07T17:45:03.837Z,101874.00
2023-05-07T17:47:30.581Z,101886.72
2023-05-07T17:49:57.287Z,101898.47
2023-05-07T17:52:24.347Z,101886.56
2023-05-07T17:54:51.012Z,101891.06
2023-05-07T17:57:18.288Z,101897.94
2023-05-07T17:59:46.889Z,101897.44
2023-05-07T18:02:14.126Z,101887.78
2023-05-07T18:04:40.917Z,101892.59
2023-05-07T18:07:07.672Z,101898.13
2023-05-07T18:09:34.720Z,101898.28
2023-05-07T18:12:02.130Z,101897.44
2023-05-07T18:14:29.448Z,101905.72
2023-05-07T18:16:56.148Z,101897.59
2023-05-07T18:19:22.806Z,101906.03
2023-05-07T18:21:49.624Z,101900.84
2023-05-07T18:24:18.692Z,101901.91
2023-05-07T18:26:49.174Z,101909.84
2023-05-07T18:29:18.149Z,101912.47
2023-05-07T18:31:44.949Z,101905.34
2023-05-07T18:34:11.726Z,101921.41
2023-05-07T18:36:38.423Z,101916.03
2023-05-07T18:39:09.049Z,101918.44
2023-05-07T18:41:36.278Z,101924.81
2023-05-07T18:44:06.777Z,101932.75
2023-05-07T18:46:33.983Z,101924.25
2023-05-07T18:49:01.091Z,101905.59
2023-05-07T18:51:27.919Z,101926.66
2023-05-07T18:53:57.382Z,101928.06
2023-05-07T18:56:24.608Z,101928.72
2023-05-07T18:58:51.591Z,101930.97
2023-05-07T19:01:18.336Z,101929.38
2023-05-07T19:03:45.374Z,101935.59
2023-05-07T19:06:12.509Z,101927.66
2023-05-07T19:08:39.458Z,101936.63
2023-05-07T19:11:06.794Z,101935.53
2023-05-07T19:13:36.089Z,101919.81
2023-05-07T19:16:03.671Z,101937.59
2023-05-07T19:18:32.041Z,101942.75
2023-05-07T19:21:01.360Z,101937.06
2023-05-07T19:23:28.442Z,101939.41
2023-05-07T19:25:55.559Z,101938.22
2023-05-07T19:28:22.357Z,101960.63
2023-05-07T19:30:49.982Z,101965.47
2023-05-07T19:33:17.071Z,101974.91
2023-05-07T19:35:48.821Z,101983.34
2023-05-07T19:38:15.930Z,101939.09
2023-05-07T19:40:43.084Z,101952.91
2023-05-07T19:43:09.854Z,101985.94
2023-05-07T19:45:37.816Z,101972.47
2023-05-07T19:48:07.131Z,101955.50
2023-05-07T19:50:33.974Z,101992.69
2023-05-07T19:53:00.805Z,101991.50
2023-05-07T19:55:27.751Z,101994.09
2023-05-07T19:57:55.923Z,101983.53
2023-05-07T20:00:27.202Z,101985.44
2023-05-07T20:02:54.134Z,101986.50
2023-05-07T20:05:23.636Z,101992.22
2023-05-07T20:07:50.460Z,101988.19
2023-05-07T20:10:19.670Z,101974.53
2023-05-07T20:12:46.697Z,101995.78
2023-05-07T20:15:13.661Z,102000.28
2023-05-07T20:17:40.870Z,102006.66
2023-05-07T20:20:11.592Z,101934.91
2023-05-07T20:22:38.482Z,102000.59
2023-05-07T20:25:06.472Z,102005.22
2023-05-07T20:27:35.261Z,101987.16
2023-05-07T20:30:02.168Z,101964.22
2023-05-07T20:32:29.414Z,101998.88
2023-05-07T20:34:56.423Z,102004.53
2023-05-07T20:37:23.444Z,101999.19
2023-05-07T20:39:50.410Z,102004.00
2023-05-07T20:42:17.631Z,102005.03
2023-05-07T20:44:44.841Z,101994.94
2023-05-07T20:47:13.896Z,101982.53
2023-05-07T20:49:43.881Z,101987.19
2023-05-07T20:52:10.737Z,101991.50
2023-05-07T20:54:40.379Z,102000.44
2023-05-07T20:57:10.503Z,102006.38
2023-05-07T20:59:40.291Z,102011.88
2023-05-07T21:02:12.393Z,102011.16
2023-05-07T21:04:39.233Z,102007.88
2023-05-07T21:07:07.287Z,102011.47
2023-05-07T21:09:36.405Z,102006.31
2023-05-07T21:12:03.418Z,102008.19
2023-05-07T21:14:30.403Z,102013.47
2023-05-07T21:17:01.261Z,102020.72
2023-05-07T21:19:28.797Z,102021.53
2023-05-07T21:21:57.903Z,102007.88
2023-05-07T21:24:25.648Z,102025.88
2023-05-07T21:27:00.872Z,102029.47
2023-05-07T21:29:27.814Z,102025.47
2023-05-07T21:31:54.833Z,102038.91
2023-05-07T21:34:21.996Z,102007.81
2023-05-07T21:36:52.274Z,102034.59
2023-05-07T21:39:19.229Z,102034.78
2023-05-07T21:41:46.338Z,102012.63
2023-05-07T21:44:15.605Z,102035.09
2023-05-07T21:46:45.396Z,102027.63
2023-05-07T21:49:12.428Z,102035.88
2023-05-07T21:51:39.204Z,102046.03
2023-05-07T21:54:07.317Z,102027.00
2023-05-07T21:56:36.216Z,102045.09
2023-05-07T21:59:03.124Z,102047.47
2023-05-07T22:01:30.114Z,102047.63
2023-05-07T22:03:57.359Z,102039.97
2023-05-07T22:06:25.845Z,102049.66
2023-05-07T22:08:54.922Z,102043.78
2023-05-07T22:11:22.041Z,102048.25
2023-05-07T22:13:49.028Z,102024.38
2023-05-07T22:16:20.598Z,102059.59
2023-05-07T22:18:49.830Z,102050.91
2023-05-07T22:21:16.782Z,102059.59
2023-05-07T22:23:43.701Z,102057.00
2023-05-07T22:26:14.494Z,102046.06
2023-05-07T22:28:41.477Z,102062.81
2023-05-07T22:31:10.615Z,101959.75
2023-05-07T22:33:37.801Z,102062.81
2023-05-07T22:36:08.028Z,102067.44
2023-05-07T22:38:35.187Z,102069.19
2023-05-07T22:41:02.045Z,102065.19
2023-05-07T22:43:29.325Z,102043.25
2023-05-07T22:46:02.718Z,102046.38
2023-05-07T22:48:30.020Z,102060.94
2023-05-07T22:50:57.018Z,102066.13
2023-05-07T22:53:23.968Z,102066.81
2023-05-07T22:55:50.977Z,102074.22
2023-05-07T22:58:20.491Z,102071.47
2023-05-07T23:00:47.681Z,102042.34
2023-05-07T23:03:14.557Z,102076.44
2023-05-07T23:05:41.497Z,102054.50
2023-05-07T23:08:08.732Z,102064.69
2023-05-07T23:10:39.175Z,102074.84
2023-05-07T23:13:06.387Z,102066.66
2023-05-07T23:15:33.774Z,102074.44
2023-05-07T23:18:00.647Z,102069.41
2023-05-07T23:20:27.814Z,102069.25
2023-05-07T23:22:55.206Z,102064.91
2023-05-07T23:25:22.096Z,102069.41
2023-05-07T23:27:51.492Z,102059.34
2023-05-07T23:30:20.481Z,102070.75
2023-05-07T23:32:47.315Z,102068.31
2023-05-07T23:35:16.511Z,102039.44
2023-05-07T23:37:43.871Z,102055.09
2023-05-07T23:40:13.469Z,102055.25
2023-05-07T23:42:40.736Z,102060.19
2023-05-07T23:45:08.695Z,102040.41
2023-05-07T23:47:35.924Z,102066.25
2023-05-07T23:50:03.691Z,102069.00
2023-05-07T23:52:30.654Z,102047.19
2023-05-07T23:54:59.640Z,102037.66
2023-05-07T23:57:29.241Z,102035.19
2023-05-07T23:59:56.197Z,102060.63
